Time;durP1;ratioP1;P1;durP2;ratioP2;P2;SDS_P1;SDS_P2;PMS_P1;PMS_P2;Temp;Humidity;BMP_temperature;BMP_pressure;BME280_temperature;BME280_humidity;BME280_pressure;Samples;Min_cycle;Max_cycle;Signal;HPM_P1;HPM_P2
2023/07/13 00:00:25;;;;;;;12.38;2.63;;;16.70;99.90;;;;;;4998346;28;20399;-94
2023/07/13 00:02:53;;;;;;;11.82;2.05;;;17.40;99.90;;;;;;4999750;28;20451;-94
2023/07/13 00:05:21;;;;;;;6.90;1.17;;;17.30;99.90;;;;;;4996565;28;20425;-94
2023/07/13 00:07:48;;;;;;;6.50;1.00;;;17.40;99.90;;;;;;4998454;28;20436;-94
2023/07/13 00:10:14;;;;;;;5.13;0.88;;;17.10;99.90;;;;;;4997570;28;20435;-94
2023/07/13 00:12:40;;;;;;;5.75;0.80;;;17.70;99.90;;;;;;4997680;28;20458;-95
2023/07/13 00:15:22;;;;;;;6.80;1.00;;;17.40;99.90;;;;;;4998077;28;20427;-94
2023/07/13 00:17:53;;;;;;;6.35;0.90;;;16.80;99.90;;;;;;4997816;28;20422;-95
2023/07/13 00:20:24;;;;;;;6.43;1.17;;;17.40;99.90;;;;;;4998890;28;20434;-95
2023/07/13 00:22:57;;;;;;;8.80;1.45;;;17.80;99.90;;;;;;4996092;28;20901;-94
2023/07/13 00:25:28;;;;;;;10.13;1.77;;;17.20;99.90;;;;;;4998456;28;20434;-94
2023/07/13 00:27:56;;;;;;;8.75;1.30;;;17.00;99.90;;;;;;4997715;28;20818;-94
2023/07/13 00:30:23;;;;;;;10.40;1.33;;;17.00;99.90;;;;;;4996734;28;20526;-94
2023/07/13 00:32:49;;;;;;;8.05;1.10;;;16.90;99.90;;;;;;4996553;28;20411;-94
2023/07/13 00:35:15;;;;;;;8.45;1.00;;;17.10;99.90;;;;;;4995984;28;20469;-94
2023/07/13 00:37:42;;;;;;;7.93;1.17;;;17.30;99.90;;;;;;4996079;28;20437;-94
2023/07/13 00:40:09;;;;;;;7.22;1.00;;;17.20;99.90;;;;;;4995082;28;20902;-93
2023/07/13 00:42:35;;;;;;;6.63;0.88;;;16.90;99.90;;;;;;4997745;28;20419;-93
2023/07/13 00:45:27;;;;;;;4.67;0.60;;;17.30;99.90;;;;;;4994779;28;20446;-94
2023/07/13 00:47:57;;;;;;;5.27;0.50;;;16.80;99.90;;;;;;4995055;28;20644;-94
2023/07/13 00:50:23;;;;;;;4.30;0.80;;;17.00;99.90;;;;;;4996316;28;20443;-94
2023/07/13 00:52:53;;;;;;;4.80;0.60;;;16.80;99.90;;;;;;4995483;28;20495;-94
2023/07/13 00:55:21;;;;;;;4.88;0.40;;;17.30;99.90;;;;;;4997287;28;21072;-94
2023/07/13 00:57:46;;;;;;;2.88;0.30;;;16.70;99.90;;;;;;4996296;28;20498;-94
2023/07/13 01:00:13;;;;;;;3.08;0.43;;;16.70;99.90;;;;;;4996263;28;20480;-94
2023/07/13 01:02:42;;;;;;;4.30;0.60;;;16.60;99.90;;;;;;4994605;28;20411;-94
2023/07/13 01:05:14;;;;;;;3.42;0.40;;;16.40;99.90;;;;;;4995124;28;20408;-94
2023/07/13 01:07:41;;;;;;;3.53;0.55;;;16.60;99.90;;;;;;4996150;28;20415;-94
2023/07/13 01:10:08;;;;;;;3.83;0.50;;;17.00;99.90;;;;;;4995358;28;20521;-94
2023/07/13 01:12:34;;;;;;;3.38;0.40;;;16.90;99.90;;;;;;4996258;28;20414;-94
2023/07/13 01:15:01;;;;;;;4.22;0.40;;;16.90;99.90;;;;;;4994020;28;20403;-94
2023/07/13 01:17:29;;;;;;;4.50;0.60;;;16.90;99.90;;;;;;4996255;28;20747;-94
2023/07/13 01:19:55;;;;;;;4.53;0.60;;;16.70;99.90;;;;;;4994789;28;20415;-93
2023/07/13 01:22:26;;;;;;;3.40;0.57;;;16.90;99.90;;;;;;4995151;28;20419;-93
2023/07/13 01:24:53;;;;;;;4.87;0.50;;;16.30;99.90;;;;;;4994942;28;20403;-94
2023/07/13 01:27:25;;;;;;;5.30;0.70;;;16.60;99.90;;;;;;4994007;28;20418;-93
2023/07/13 01:29:53;;;;;;;4.43;0.50;;;16.90;99.90;;;;;;4994946;28;20450;-93
2023/07/13 01:32:23;;;;;;;3.72;0.40;;;16.90;99.90;;;;;;4993711;28;20920;-93
2023/07/13 01:34:51;;;;;;;2.75;0.50;;;16.60;99.90;;;;;;4995742;28;20911;-93
2023/07/13 01:37:17;;;;;;;6.70;0.60;;;16.50;99.90;;;;;;4995309;28;20419;-93
2023/07/13 01:39:43;;;;;;;3.28;0.50;;;16.50;99.90;;;;;;4994888;28;20414;-93
2023/07/13 01:42:09;;;;;;;5.30;0.50;;;17.00;99.90;;;;;;4996240;28;20408;-94
2023/07/13 01:44:35;;;;;;;4.87;0.50;;;16.30;99.90;;;;;;4994341;28;20438;-93
2023/07/13 01:47:01;;;;;;;3.87;0.50;;;16.50;99.90;;;;;;4995444;28;20407;-92
2023/07/13 01:49:27;;;;;;;3.27;0.40;;;16.30;99.90;;;;;;4993535;28;20490;-94
2023/07/13 01:51:53;;;;;;;3.30;0.60;;;16.50;99.90;;;;;;4995306;28;20515;-94
2023/07/13 01:54:18;;;;;;;6.63;0.60;;;16.40;99.90;;;;;;4994440;28;20407;-93
2023/07/13 01:56:44;;;;;;;3.72;0.57;;;17.10;99.90;;;;;;4994519;28;20421;-93
2023/07/13 01:59:10;;;;;;;2.90;0.30;;;16.30;99.90;;;;;;4994443;28;20497;-93
2023/07/13 02:01:36;;;;;;;3.45;0.38;;;16.10;99.90;;;;;;4994069;28;20963;-94
2023/07/13 02:04:03;;;;;;;3.20;0.45;;;16.00;99.90;;;;;;4994883;28;20422;-94
2023/07/13 02:06:29;;;;;;;3.50;0.50;;;15.90;99.90;;;;;;4993694;28;20415;-93
2023/07/13 02:08:55;;;;;;;3.37;0.50;;;15.80;99.90;;;;;;4995639;28;20417;-93
2023/07/13 02:11:21;;;;;;;4.57;0.60;;;16.20;99.90;;;;;;4992856;28;20526;-94
2023/07/13 02:13:47;;;;;;;5.70;0.65;;;15.80;99.90;;;;;;4995255;28;20454;-94
2023/07/13 02:16:13;;;;;;;6.30;0.45;;;16.10;99.90;;;;;;4993745;28;20400;-94
2023/07/13 02:18:38;;;;;;;3.40;0.40;;;16.00;99.90;;;;;;4993771;28;20427;-94
2023/07/13 02:21:04;;;;;;;4.07;0.60;;;16.10;99.90;;;;;;4994980;28;20407;-94
2023/07/13 02:23:31;;;;;;;3.80;0.50;;;15.80;99.90;;;;;;4993269;28;20403;-94
2023/07/13 02:25:58;;;;;;;3.50;0.40;;;16.10;99.90;;;;;;4994604;28;20411;-94
2023/07/13 02:28:24;;;;;;;4.30;0.40;;;15.90;99.90;;;;;;4992712;28;20407;-93
2023/07/13 02:30:50;;;;;;;3.90;0.63;;;15.80;99.90;;;;;;4994719;28;20434;-94
2023/07/13 02:33:16;;;;;;;5.40;0.70;;;15.80;99.90;;;;;;4992883;28;20461;-93
2023/07/13 02:35:42;;;;;;;4.70;0.90;;;15.70;99.90;;;;;;4993838;28;20407;-94
2023/07/13 02:38:08;;;;;;;5.57;0.63;;;16.00;99.90;;;;;;4993701;28;20410;-93
2023/07/13 02:40:36;;;;;;;5.80;0.80;;;15.80;99.90;;;;;;4993145;28;20434;-93
2023/07/13 02:43:03;;;;;;;5.78;1.13;;;15.60;99.90;;;;;;4993678;28;20446;-94
2023/07/13 02:45:29;;;;;;;5.93;1.40;;;15.80;99.90;;;;;;4992898;28;20407;-93
2023/07/13 02:47:55;;;;;;;6.13;1.15;;;15.50;99.90;;;;;;4995232;28;20407;-93
2023/07/13 02:50:20;;;;;;;8.03;1.70;;;15.50;99.90;;;;;;4993400;28;20434;-93
2023/07/13 02:52:46;;;;;;;7.97;1.45;;;15.50;99.90;;;;;;4994264;28;20414;-93
2023/07/13 02:55:12;;;;;;;8.77;2.00;;;15.30;99.90;;;;;;4994211;28;20419;-95
2023/07/13 02:57:38;;;;;;;6.03;1.40;;;16.20;99.90;;;;;;4993092;28;20770;-94
2023/07/13 03:00:05;;;;;;;8.40;2.03;;;15.50;99.90;;;;;;4993864;28;20441;-93
2023/07/13 03:02:32;;;;;;;8.30;1.93;;;15.40;99.90;;;;;;4993555;28;20415;-94
2023/07/13 03:04:58;;;;;;;8.57;1.90;;;15.50;99.90;;;;;;4994797;28;20435;-94
2023/07/13 03:07:25;;;;;;;7.97;2.03;;;15.50;99.90;;;;;;4992417;28;20446;-94
2023/07/13 03:09:57;;;;;;;9.88;2.67;;;15.40;99.90;;;;;;4994821;28;21015;-93
2023/07/13 03:12:24;;;;;;;8.68;2.50;;;15.30;99.90;;;;;;4993470;28;20964;-94
2023/07/13 03:14:50;;;;;;;9.90;2.95;;;15.60;99.90;;;;;;4993882;28;20442;-93
2023/07/13 03:17:16;;;;;;;10.45;3.25;;;16.00;99.90;;;;;;4993985;28;20422;-93
2023/07/13 03:19:42;;;;;;;11.20;3.00;;;15.90;99.90;;;;;;4992878;28;20984;-93
2023/07/13 03:22:07;;;;;;;10.48;3.33;;;16.20;99.90;;;;;;4994463;28;20414;-93
2023/07/13 03:24:34;;;;;;;11.40;2.78;;;15.90;99.90;;;;;;4993392;28;20422;-93
2023/07/13 03:27:03;;;;;;;12.82;3.50;;;15.90;99.90;;;;;;4994484;28;20435;-93
2023/07/13 03:29:30;;;;;;;13.15;3.08;;;15.50;99.90;;;;;;5010968;28;20413;-94
2023/07/13 03:31:55;;;;;;;9.57;3.55;;;15.50;99.90;;;;;;4997280;28;20814;-94
2023/07/13 03:34:21;;;;;;;12.17;3.70;;;15.70;99.90;;;;;;4997371;28;20411;-93
2023/07/13 03:36:47;;;;;;;10.32;3.53;;;15.40;99.90;;;;;;4996572;28;20414;-94
2023/07/13 03:39:13;;;;;;;11.85;3.78;;;15.80;99.90;;;;;;4998289;28;20506;-94
2023/07/13 03:41:39;;;;;;;15.63;4.38;;;15.40;99.90;;;;;;4996360;28;20410;-94
2023/07/13 03:44:05;;;;;;;11.55;3.88;;;15.70;99.90;;;;;;4998618;28;20407;-93
2023/07/13 03:46:31;;;;;;;12.03;3.50;;;16.00;99.90;;;;;;4996258;28;20413;-94
2023/07/13 03:48:57;;;;;;;12.57;3.65;;;15.50;99.90;;;;;;4997802;28;20407;-94
2023/07/13 03:51:23;;;;;;;14.13;3.42;;;15.40;99.90;;;;;;4997099;28;20496;-94
2023/07/13 03:53:49;;;;;;;16.73;4.03;;;15.50;99.90;;;;;;4996828;28;20449;-94
2023/07/13 03:56:17;;;;;;;14.07;3.92;;;15.50;99.90;;;;;;4997728;28;20447;-94
2023/07/13 03:58:46;;;;;;;10.73;3.50;;;15.20;99.90;;;;;;4996273;28;20490;-94
2023/07/13 04:01:13;;;;;;;10.70;3.47;;;15.50;99.90;;;;;;4998095;28;20429;-94
2023/07/13 04:03:40;;;;;;;11.13;3.92;;;15.40;99.90;;;;;;4996182;28;20407;-93
2023/07/13 04:06:08;;;;;;;11.95;4.00;;;15.20;99.90;;;;;;4998608;28;20413;-94
2023/07/13 04:08:36;;;;;;;11.55;3.90;;;15.90;99.90;;;;;;4996672;28;20877;-94
2023/07/13 04:11:03;;;;;;;14.83;4.40;;;15.10;99.90;;;;;;4996681;28;20427;-93
2023/07/13 04:13:29;;;;;;;12.27;3.88;;;15.30;99.90;;;;;;4997341;28;20498;-93
2023/07/13 04:15:55;;;;;;;15.88;4.47;;;15.40;99.90;;;;;;4995651;28;20926;-93
2023/07/13 04:18:22;;;;;;;13.95;4.50;;;15.20;99.90;;;;;;4997477;28;20930;-93
2023/07/13 04:20:49;;;;;;;15.40;5.05;;;15.60;99.90;;;;;;4995008;28;20946;-94
2023/07/13 04:23:16;;;;;;;16.75;4.75;;;15.60;99.90;;;;;;4998218;28;20482;-93
2023/07/13 04:25:46;;;;;;;15.05;4.53;;;15.10;99.90;;;;;;4996278;28;20411;-93
2023/07/13 04:28:12;;;;;;;18.10;4.93;;;15.50;99.90;;;;;;4976297;28;20546;-93
2023/07/13 04:30:38;;;;;;;16.65;4.75;;;15.40;99.90;;;;;;4975067;28;20962;-95
2023/07/13 04:33:04;;;;;;;15.05;4.35;;;15.50;99.90;;;;;;4974137;28;20413;-93
2023/07/13 04:35:31;;;;;;;14.43;4.72;;;15.40;99.90;;;;;;4975838;28;20917;-94
2023/07/13 04:37:57;;;;;;;15.13;4.63;;;15.90;99.90;;;;;;4973909;28;20463;-95
2023/07/13 04:40:23;;;;;;;15.07;4.87;;;15.70;99.90;;;;;;4976264;28;20994;-94
2023/07/13 04:42:49;;;;;;;14.13;4.20;;;15.70;99.90;;;;;;4975495;28;20427;-93
2023/07/13 04:45:15;;;;;;;15.60;4.82;;;16.20;99.90;;;;;;4976461;28;20759;-92
2023/07/13 04:47:41;;;;;;;14.18;4.40;;;16.10;99.90;;;;;;4975595;28;20484;-94
2023/07/13 04:50:10;;;;;;;12.38;3.50;;;16.00;99.90;;;;;;4974707;28;20433;-93
2023/07/13 04:52:36;;;;;;;13.18;4.18;;;16.30;99.90;;;;;;4975580;28;20444;-94
2023/07/13 04:55:02;;;;;;;13.27;3.80;;;16.70;99.90;;;;;;4974558;28;20400;-94
2023/07/13 04:57:28;;;;;;;12.68;3.30;;;16.50;99.90;;;;;;4977698;28;20421;-94
2023/07/13 04:59:54;;;;;;;11.45;3.20;;;16.70;99.90;;;;;;4973065;28;20574;-95
2023/07/13 05:02:21;;;;;;;11.98;2.88;;;16.70;99.90;;;;;;4983502;28;20834;-93
2023/07/13 05:04:50;;;;;;;7.40;2.35;;;17.30;99.90;;;;;;4975821;28;20417;-92
2023/07/13 05:07:16;;;;;;;8.93;2.60;;;17.20;99.90;;;;;;4977202;28;20424;-94
2023/07/13 05:09:42;;;;;;;9.43;2.50;;;17.20;99.90;;;;;;4978402;28;20417;-92
2023/07/13 05:12:09;;;;;;;12.40;2.95;;;17.90;99.90;;;;;;4975523;28;20436;-94
2023/07/13 05:14:35;;;;;;;9.60;2.40;;;17.30;99.90;;;;;;4975104;28;20434;-94
2023/07/13 05:17:01;;;;;;;9.50;2.63;;;18.20;99.90;;;;;;4973872;28;20474;-94
2023/07/13 05:19:27;;;;;;;7.88;2.15;;;17.80;99.90;;;;;;4976209;28;20417;-93
2023/07/13 05:21:53;;;;;;;10.93;2.85;;;17.60;99.90;;;;;;4975154;28;20413;-93
2023/07/13 05:24:19;;;;;;;8.57;1.90;;;17.70;99.90;;;;;;4976700;28;20436;-93
2023/07/13 05:26:45;;;;;;;8.13;2.17;;;17.80;99.90;;;;;;4976992;28;20522;-92
2023/07/13 05:29:11;;;;;;;7.27;1.90;;;17.90;99.90;;;;;;4974728;28;20957;-93
2023/07/13 05:31:37;;;;;;;7.00;1.77;;;18.00;99.90;;;;;;4975747;28;20508;-93
2023/07/13 05:34:03;;;;;;;6.20;1.58;;;17.90;99.90;;;;;;4974800;28;20757;-92
2023/07/13 05:36:29;;;;;;;7.80;1.45;;;18.40;99.90;;;;;;4975407;28;20405;-92
2023/07/13 05:38:55;;;;;;;9.73;1.80;;;18.30;99.90;;;;;;4974731;28;20419;-92
2023/07/13 05:41:20;;;;;;;8.33;1.80;;;18.40;99.90;;;;;;4976900;28;20405;-92
2023/07/13 05:43:46;;;;;;;9.85;1.77;;;18.80;99.90;;;;;;4974727;28;20412;-92
2023/07/13 05:46:12;;;;;;;5.35;1.38;;;18.60;99.90;;;;;;4974683;28;20474;-92
2023/07/13 05:48:39;;;;;;;7.90;1.65;;;18.70;99.90;;;;;;4976461;28;20417;-92
2023/07/13 05:51:04;;;;;;;7.20;1.45;;;19.00;99.90;;;;;;4974005;28;20483;-92
2023/07/13 05:53:30;;;;;;;5.77;1.30;;;19.00;99.90;;;;;;4974192;28;20422;-92
2023/07/13 05:55:56;;;;;;;7.85;1.40;;;19.00;99.90;;;;;;4975595;28;20415;-93
2023/07/13 05:58:22;;;;;;;6.68;1.25;;;19.00;99.90;;;;;;4975784;28;20429;-92
2023/07/13 06:00:48;;;;;;;6.80;1.40;;;19.30;99.90;;;;;;4973706;28;20412;-92
2023/07/13 06:03:15;;;;;;;4.80;1.08;;;19.60;99.90;;;;;;4975486;28;20408;-91
2023/07/13 06:05:41;;;;;;;7.03;1.45;;;19.30;99.90;;;;;;4973821;28;20408;-90
2023/07/13 06:08:08;;;;;;;5.17;1.07;;;19.40;99.90;;;;;;4974230;28;20408;-92
2023/07/13 06:10:35;;;;;;;5.18;1.00;;;20.20;99.90;;;;;;4973949;28;20439;-91
2023/07/13 06:13:01;;;;;;;6.25;0.90;;;19.50;99.90;;;;;;4973390;28;20473;-91
2023/07/13 06:15:27;;;;;;;4.82;1.02;;;19.50;99.90;;;;;;4973707;28;20437;-92
2023/07/13 06:17:53;;;;;;;5.53;0.93;;;19.70;99.90;;;;;;4972438;28;21059;-93
2023/07/13 06:20:19;;;;;;;4.97;0.77;;;19.60;99.90;;;;;;4974396;28;20409;-92
2023/07/13 06:22:44;;;;;;;4.75;1.08;;;20.00;99.90;;;;;;4973512;28;20500;-93
2023/07/13 06:25:10;;;;;;;3.80;0.70;;;19.70;99.90;;;;;;4975041;28;20496;-92
2023/07/13 06:27:36;;;;;;;5.23;0.67;;;19.80;99.90;;;;;;4974014;28;20890;-92
2023/07/13 06:30:03;;;;;;;5.55;0.70;;;19.80;99.90;;;;;;4973762;28;20955;-92
2023/07/13 06:32:28;;;;;;;3.65;0.60;;;19.90;99.90;;;;;;4974759;28;20417;-92
2023/07/13 06:34:54;;;;;;;5.28;0.70;;;19.90;99.90;;;;;;4972904;28;20906;-92
2023/07/13 06:37:20;;;;;;;4.50;0.70;;;20.40;99.90;;;;;;4974875;28;20425;-92
2023/07/13 06:39:46;;;;;;;3.67;0.68;;;20.10;99.90;;;;;;4973645;28;20459;-92
2023/07/13 06:42:12;;;;;;;3.97;0.55;;;20.50;99.90;;;;;;4974967;28;21084;-91
2023/07/13 06:44:38;;;;;;;4.95;0.63;;;20.10;99.90;;;;;;4973433;28;20449;-92
2023/07/13 06:47:04;;;;;;;7.17;0.70;;;20.40;99.90;;;;;;4973832;28;20496;-93
2023/07/13 06:49:30;;;;;;;4.63;0.83;;;19.80;99.90;;;;;;4974048;28;20417;-93
2023/07/13 06:51:55;;;;;;;4.72;0.60;;;19.50;99.90;;;;;;4973041;28;20468;-92
2023/07/13 06:54:21;;;;;;;4.93;0.85;;;19.20;99.90;;;;;;4974374;28;20413;-93
2023/07/13 06:56:47;;;;;;;6.65;0.80;;;19.30;99.90;;;;;;4972886;28;20492;-94
2023/07/13 06:59:13;;;;;;;5.17;0.80;;;19.80;99.90;;;;;;4974710;28;20417;-93
2023/07/13 07:01:39;;;;;;;4.65;0.90;;;19.60;99.90;;;;;;4972934;28;20417;-92
2023/07/13 07:04:05;;;;;;;4.60;0.75;;;20.10;99.90;;;;;;4977350;28;20409;-93
2023/07/13 07:06:31;;;;;;;8.17;1.53;;;20.20;99.90;;;;;;4977229;28;20405;-93
2023/07/13 07:08:57;;;;;;;8.05;1.30;;;20.70;99.90;;;;;;4977351;28;20423;-93
2023/07/13 07:11:24;;;;;;;6.70;0.98;;;20.30;99.90;;;;;;4977910;28;20482;-93
2023/07/13 07:13:51;;;;;;;7.07;1.23;;;20.80;99.90;;;;;;4977809;28;20843;-93
2023/07/13 07:16:18;;;;;;;8.10;1.17;;;21.20;99.90;;;;;;4978989;28;20401;-93
2023/07/13 07:18:45;;;;;;;6.00;1.10;;;21.20;99.90;;;;;;4977196;28;20405;-93
2023/07/13 07:21:11;;;;;;;7.07;1.50;;;21.00;99.90;;;;;;4978981;28;20483;-94
2023/07/13 07:23:37;;;;;;;6.47;1.35;;;21.00;99.90;;;;;;4977770;28;20855;-94
2023/07/13 07:26:03;;;;;;;7.05;1.30;;;21.60;99.90;;;;;;4977609;28;20479;-95
2023/07/13 07:28:29;;;;;;;7.60;1.35;;;21.10;99.90;;;;;;4977731;28;20408;-94
2023/07/13 07:30:57;;;;;;;8.20;1.23;;;20.80;99.90;;;;;;4976808;28;20436;-92
2023/07/13 07:33:24;;;;;;;7.03;1.10;;;20.80;99.90;;;;;;4977928;28;20432;-94
2023/07/13 07:35:50;;;;;;;6.38;1.10;;;20.70;99.90;;;;;;4980002;28;20412;-93
2023/07/13 07:38:16;;;;;;;5.22;1.17;;;20.10;99.90;;;;;;4979157;28;20405;-94
2023/07/13 07:40:42;;;;;;;6.60;1.40;;;20.20;99.90;;;;;;4975511;28;20404;-94
2023/07/13 07:43:12;;;;;;;7.18;0.90;;;20.20;99.90;;;;;;4977789;28;20820;-94
2023/07/13 07:45:39;;;;;;;4.40;0.90;;;20.50;99.90;;;;;;4978221;28;20420;-94
2023/07/13 07:48:06;;;;;;;7.85;1.20;;;20.30;99.90;;;;;;4976122;28;20438;-94
2023/07/13 07:50:32;;;;;;;6.10;1.30;;;20.50;99.90;;;;;;4977119;28;20431;-94
2023/07/13 07:52:58;;;;;;;5.90;1.10;;;20.50;99.90;;;;;;4977683;28;20895;-93
2023/07/13 07:55:28;;;;;;;8.83;1.40;;;20.40;99.90;;;;;;4976245;28;20408;-91
2023/07/13 07:57:56;;;;;;;4.63;1.30;;;20.10;99.90;;;;;;4975533;28;20423;-94
2023/07/13 08:00:22;;;;;;;7.80;1.98;;;19.70;99.90;;;;;;4985275;28;20499;-91
2023/07/13 08:02:48;;;;;;;7.03;2.15;;;19.30;99.90;;;;;;4975327;28;20448;-93
2023/07/13 08:05:14;;;;;;;7.18;1.73;;;19.30;99.90;;;;;;4973623;28;20408;-93
2023/07/13 08:07:40;;;;;;;6.97;2.05;;;19.00;99.90;;;;;;4985464;28;20429;-92
2023/07/13 08:10:07;;;;;;;6.40;1.80;;;18.70;99.90;;;;;;4993888;28;20422;-93
2023/07/13 08:12:37;;;;;;;7.53;2.15;;;18.90;99.90;;;;;;4994544;28;20409;-91
2023/07/13 08:15:04;;;;;;;5.18;1.60;;;19.10;99.90;;;;;;4992032;28;20407;-92
2023/07/13 08:17:30;;;;;;;5.75;1.33;;;19.00;99.90;;;;;;4997849;28;20439;-91
2023/07/13 08:19:56;;;;;;;6.22;1.75;;;19.30;99.90;;;;;;4995483;28;20423;-93
2023/07/13 08:22:22;;;;;;;4.53;1.02;;;19.60;99.90;;;;;;4996645;28;20403;-91
2023/07/13 08:24:55;;;;;;;5.67;1.67;;;19.80;99.90;;;;;;4995449;28;20419;-91
2023/07/13 08:27:21;;;;;;;7.40;1.50;;;19.80;99.90;;;;;;4995551;28;21051;-92
2023/07/13 08:29:48;;;;;;;4.68;1.33;;;19.80;99.90;;;;;;4996093;28;20502;-93
2023/07/13 08:32:14;;;;;;;7.25;1.80;;;19.90;99.90;;;;;;4994691;28;20496;-91
2023/07/13 08:34:40;;;;;;;6.50;2.08;;;19.80;99.90;;;;;;5012499;28;20404;-92
2023/07/13 08:37:06;;;;;;;6.82;1.50;;;19.40;99.90;;;;;;4994771;28;20419;-90
2023/07/13 08:39:33;;;;;;;4.60;1.35;;;19.20;99.90;;;;;;4996144;28;20411;-91
2023/07/13 08:42:10;;;;;;;5.75;1.10;;;19.40;99.90;;;;;;4994617;28;20965;-92
2023/07/13 08:44:55;;;;;;;5.13;1.17;;;19.20;99.90;;;;;;4995638;28;20889;-90
2023/07/13 08:47:23;;;;;;;5.10;1.10;;;19.50;99.90;;;;;;4995873;28;21158;-92
2023/07/13 08:49:50;;;;;;;4.82;0.90;;;19.90;99.90;;;;;;4994537;28;20419;-91
2023/07/13 08:52:38;;;;;;;3.35;1.08;;;20.40;99.90;;;;;;4996010;28;21000;-92
2023/07/13 08:55:21;;;;;;;3.67;1.05;;;20.50;99.90;;;;;;4994720;28;20498;-91
2023/07/13 08:58:03;;;;;;;6.38;1.20;;;20.80;99.90;;;;;;4994947;28;20454;-91
2023/07/13 09:00:40;;;;;;;4.00;0.80;;;20.80;99.90;;;;;;4995479;28;20450;-91
2023/07/13 09:03:20;;;;;;;3.63;0.70;;;20.80;99.90;;;;;;4994074;28;20418;-91
2023/07/13 09:05:56;;;;;;;3.50;0.70;;;21.20;99.90;;;;;;4995472;28;20418;-92
2023/07/13 09:08:53;;;;;;;3.42;0.60;;;21.30;99.90;;;;;;4994646;28;20917;-92
2023/07/13 09:11:50;;;;;;;3.33;0.60;;;21.40;99.90;;;;;;4994370;28;20461;-92
2023/07/13 09:14:41;;;;;;;3.10;0.80;;;21.40;99.90;;;;;;4995347;28;20434;-92
2023/07/13 09:17:17;;;;;;;3.92;0.60;;;21.70;99.90;;;;;;4994847;28;20461;-93
2023/07/13 09:19:48;;;;;;;3.25;0.55;;;22.10;99.00;;;;;;4994125;28;20744;-92
2023/07/13 09:22:19;;;;;;;2.70;0.60;;;21.80;93.90;;;;;;4995698;28;20486;-93
2023/07/13 09:24:53;;;;;;;4.35;0.70;;;22.70;97.50;;;;;;4994141;28;20465;-92
2023/07/13 09:27:24;;;;;;;2.35;0.50;;;22.40;97.20;;;;;;4995350;28;20422;-91
2023/07/13 09:30:04;;;;;;;2.25;0.35;;;22.50;91.10;;;;;;4993505;28;20406;-92
2023/07/13 09:32:32;;;;;;;2.35;0.40;;;22.10;91.90;;;;;;4994019;28;20969;-91
2023/07/13 09:35:00;;;;;;;2.50;0.30;;;22.20;92.00;;;;;;4991523;28;20414;-89
2023/07/13 09:37:30;;;;;;;2.10;0.20;;;22.30;85.90;;;;;;4972710;28;20424;-87
2023/07/13 09:39:58;;;;;;;2.55;0.20;;;22.30;85.40;;;;;;4990411;28;20443;-90
2023/07/13 09:42:26;;;;;;;2.08;0.30;;;21.90;78.00;;;;;;4973207;28;20892;-88
2023/07/13 09:44:55;;;;;;;2.53;0.30;;;21.50;89.10;;;;;;4974461;28;20763;-90
2023/07/13 09:47:25;;;;;;;4.00;0.40;;;22.20;92.40;;;;;;4974039;28;20413;-90
2023/07/13 09:50:00;;;;;;;2.50;0.50;;;22.20;96.70;;;;;;4989668;28;20915;-88
2023/07/13 09:52:27;;;;;;;3.30;0.40;;;22.40;90.80;;;;;;4989917;28;20409;-89
2023/07/13 09:54:58;;;;;;;3.40;0.32;;;22.50;90.10;;;;;;4988902;28;20405;-89
2023/07/13 09:57:26;;;;;;;3.03;0.40;;;22.80;90.00;;;;;;4990469;28;20445;-87
2023/07/13 09:59:56;;;;;;;2.30;0.30;;;22.50;89.20;;;;;;4984025;28;20430;-92
2023/07/13 10:02:35;;;;;;;2.28;0.40;;;22.40;82.80;;;;;;4954046;28;20727;-92
2023/07/13 10:05:05;;;;;;;2.38;0.43;;;21.90;89.70;;;;;;4954990;28;20430;-88
2023/07/13 10:07:32;;;;;;;2.40;0.20;;;21.80;84.40;;;;;;4954064;28;20415;-89
2023/07/13 10:10:03;;;;;;;1.83;0.30;;;22.00;87.40;;;;;;4970599;28;20894;-87
2023/07/13 10:12:35;;;;;;;2.90;0.30;;;22.20;85.20;;;;;;4953006;28;20410;-87
2023/07/13 10:15:04;;;;;;;1.67;0.20;;;22.40;85.60;;;;;;4970548;28;20422;-92
2023/07/13 10:17:33;;;;;;;2.20;0.20;;;22.30;73.60;;;;;;4970201;28;20845;-87
2023/07/13 10:20:10;;;;;;;1.75;0.20;;;22.00;72.60;;;;;;4969846;28;20416;-87
2023/07/13 10:23:04;;;;;;;1.50;0.20;;;22.00;84.40;;;;;;4957951;28;20425;-92
2023/07/13 10:25:34;;;;;;;2.25;0.30;;;22.40;83.80;;;;;;4970253;28;20417;-89
2023/07/13 10:28:29;;;;;;;1.60;0.30;;;22.80;75.10;;;;;;4973603;28;20419;-87
2023/07/13 10:30:58;;;;;;;3.72;0.32;;;23.10;68.70;;;;;;4989082;28;20441;-90
2023/07/13 10:33:24;;;;;;;2.65;0.40;;;23.40;79.70;;;;;;4972667;28;20440;-91
2023/07/13 10:35:56;;;;;;;2.03;0.40;;;23.80;85.50;;;;;;4989919;28;20451;-90
2023/07/13 10:38:25;;;;;;;4.05;0.55;;;24.20;64.90;;;;;;4967346;28;20417;-91
2023/07/13 10:41:00;;;;;;;7.13;0.50;;;24.40;63.70;;;;;;4973403;28;20501;-88
2023/07/13 10:43:31;;;;;;;3.00;0.50;;;24.20;61.50;;;;;;4988737;28;20427;-89
2023/07/13 10:46:00;;;;;;;3.88;0.50;;;24.20;63.10;;;;;;4984490;28;20936;-90
2023/07/13 10:48:26;;;;;;;4.45;0.60;;;24.50;70.60;;;;;;4988776;28;20416;-90
2023/07/13 10:50:54;;;;;;;3.72;0.35;;;24.70;73.10;;;;;;4969388;28;20512;-92
2023/07/13 10:53:34;;;;;;;3.58;0.38;;;24.80;60.20;;;;;;4971685;28;20435;-87
2023/07/13 10:56:05;;;;;;;4.18;0.60;;;24.80;64.00;;;;;;4997777;28;20460;-87
2023/07/13 10:58:41;;;;;;;3.63;0.50;;;25.20;62.90;;;;;;4999239;28;20425;-90
2023/07/13 11:01:15;;;;;;;3.55;0.60;;;25.10;65.80;;;;;;4985915;28;20470;-91
2023/07/13 11:03:43;;;;;;;3.10;0.40;;;25.00;59.50;;;;;;4987902;28;20458;-90
2023/07/13 11:06:09;;;;;;;3.67;0.45;;;25.00;60.60;;;;;;4988660;28;20425;-89
2023/07/13 11:08:47;;;;;;;2.42;0.30;;;25.20;59.90;;;;;;5004133;28;20483;-87
2023/07/13 11:11:25;;;;;;;2.78;0.30;;;25.30;53.80;;;;;;4989200;28;20468;-90
2023/07/13 11:13:51;;;;;;;2.80;0.40;;;25.40;54.80;;;;;;4988872;28;20413;-91
2023/07/13 11:16:20;;;;;;;2.43;0.43;;;25.50;58.80;;;;;;4972528;28;20665;-88
2023/07/13 11:18:52;;;;;;;2.55;0.38;;;25.80;55.60;;;;;;4973262;28;20412;-92
2023/07/13 11:21:21;;;;;;;2.65;0.40;;;25.90;52.90;;;;;;4971895;28;20412;-88
2023/07/13 11:24:17;;;;;;;2.38;0.55;;;25.50;58.90;;;;;;4973256;28;20419;-90
2023/07/13 11:26:46;;;;;;;3.20;0.43;;;25.30;52.90;;;;;;4970897;28;20432;-92
2023/07/13 11:29:15;;;;;;;3.63;0.40;;;25.00;53.90;;;;;;4972440;28;20420;-87
2023/07/13 11:31:43;;;;;;;4.27;0.60;;;24.90;58.50;;;;;;4989076;28;20436;-90
2023/07/13 11:34:14;;;;;;;3.55;0.57;;;25.00;58.30;;;;;;4971576;28;20420;-90
2023/07/13 11:36:44;;;;;;;3.47;0.40;;;25.20;58.90;;;;;;5006532;28;20408;-91
2023/07/13 11:39:26;;;;;;;4.10;0.50;;;25.40;55.50;;;;;;4971446;28;20420;-88
2023/07/13 11:41:56;;;;;;;3.72;0.50;;;25.50;56.60;;;;;;4972273;28;20420;-90
2023/07/13 11:44:23;;;;;;;2.60;0.40;;;25.60;54.70;;;;;;4973088;28;20402;-88
2023/07/13 11:46:52;;;;;;;3.33;0.57;;;25.60;51.80;;;;;;4988294;28;20428;-91
2023/07/13 11:49:20;;;;;;;4.07;0.80;;;25.40;54.40;;;;;;4989572;28;20420;-89
2023/07/13 11:51:46;;;;;;;3.35;0.57;;;25.70;56.60;;;;;;4991578;28;20468;-91
2023/07/13 11:54:33;;;;;;;3.30;0.70;;;25.70;53.00;;;;;;4977393;28;20409;-90
2023/07/13 11:57:06;;;;;;;2.70;0.50;;;25.60;54.70;;;;;;4976517;28;20428;-88
2023/07/13 11:59:33;;;;;;;3.55;0.50;;;25.50;54.70;;;;;;4976119;28;20475;-90
2023/07/13 12:02:00;;;;;;;2.30;0.30;;;25.50;54.10;;;;;;4992469;28;20551;-91
2023/07/13 12:04:31;;;;;;;1.83;0.40;;;25.90;53.40;;;;;;4975529;28;20412;-91
2023/07/13 12:07:14;;;;;;;4.45;0.60;;;25.60;52.50;;;;;;4993246;28;20413;-88
2023/07/13 12:09:41;;;;;;;3.63;0.60;;;25.70;52.60;;;;;;4971829;28;20430;-90
2023/07/13 12:12:12;;;;;;;2.38;0.30;;;26.00;53.90;;;;;;4972070;28;20430;-92
2023/07/13 12:14:38;;;;;;;2.83;0.30;;;26.10;51.30;;;;;;4973136;28;20817;-92
2023/07/13 12:17:20;;;;;;;3.17;0.40;;;25.60;49.50;;;;;;4972361;28;20414;-93
2023/07/13 12:19:48;;;;;;;2.93;0.50;;;25.30;51.90;;;;;;4989605;28;20418;-93
2023/07/13 12:22:17;;;;;;;3.40;0.40;;;24.80;53.00;;;;;;4988561;28;20414;-92
2023/07/13 12:24:44;;;;;;;3.45;0.40;;;25.10;52.20;;;;;;4973097;28;20414;-91
2023/07/13 12:27:28;;;;;;;3.10;0.38;;;25.20;52.40;;;;;;4972407;28;20441;-89
2023/07/13 12:30:36;;;;;;;4.32;0.47;;;25.50;57.10;;;;;;4988107;28;20481;-91
2023/07/13 12:33:10;;;;;;;2.60;0.40;;;26.00;51.90;;;;;;4976770;28;20419;-90
2023/07/13 12:35:55;;;;;;;3.33;0.50;;;26.20;50.40;;;;;;4988392;28;20422;-92
2023/07/13 12:38:24;;;;;;;3.50;0.50;;;26.40;49.90;;;;;;4971669;28;20419;-91
2023/07/13 12:40:51;;;;;;;3.45;0.40;;;26.70;51.80;;;;;;4988993;28;20484;-90
2023/07/13 12:43:19;;;;;;;2.83;0.40;;;27.00;54.50;;;;;;4971784;28;20501;-90
2023/07/13 12:46:01;;;;;;;2.95;0.40;;;27.30;48.60;;;;;;4972922;28;20530;-91
2023/07/13 12:48:28;;;;;;;3.70;0.50;;;27.20;51.20;;;;;;4971203;28;20973;-89
2023/07/13 12:50:55;;;;;;;2.60;0.45;;;27.10;51.20;;;;;;4987977;28;20431;-89
2023/07/13 12:53:32;;;;;;;3.75;0.57;;;26.90;49.00;;;;;;4972623;28;20482;-91